sensor_id;sensor_type;location;lat;lon;timestamp;P1;durP1;ratioP1;P2;durP2;ratioP2
10947;SDS011;5526;42.070;24.752;2023-07-31T00:02:03;3.80;;;3.50;;
10947;SDS011;5526;42.070;24.752;2023-07-31T00:04:31;3.88;;;3.20;;
10947;SDS011;5526;42.070;24.752;2023-07-31T00:06:58;5.18;;;3.45;;
10947;SDS011;5526;42.070;24.752;2023-07-31T00:09:26;3.45;;;3.00;;
10947;SDS011;5526;42.070;24.752;2023-07-31T00:11:54;3.40;;;3.10;;
10947;SDS011;5526;42.070;24.752;2023-07-31T00:14:21;1.90;;;1.80;;
10947;SDS011;5526;42.070;24.752;2023-07-31T00:16:48;2.42;;;2.22;;
10947;SDS011;5526;42.070;24.752;2023-07-31T00:19:15;2.38;;;2.17;;
10947;SDS011;5526;42.070;24.752;2023-07-31T00:21:42;2.15;;;2.05;;
10947;SDS011;5526;42.070;24.752;2023-07-31T00:24:09;5.28;;;2.40;;
10947;SDS011;5526;42.070;24.752;2023-07-31T00:26:37;2.38;;;2.17;;
10947;SDS011;5526;42.070;24.752;2023-07-31T00:29:04;3.95;;;2.33;;
10947;SDS011;5526;42.070;24.752;2023-07-31T00:31:31;2.20;;;2.03;;
10947;SDS011;5526;42.070;24.752;2023-07-31T00:33:58;3.72;;;2.40;;
10947;SDS011;5526;42.070;24.752;2023-07-31T00:36:25;2.60;;;2.38;;
10947;SDS011;5526;42.070;24.752;2023-07-31T00:38:52;2.63;;;2.40;;
10947;SDS011;5526;42.070;24.752;2023-07-31T00:41:19;2.70;;;2.30;;
10947;SDS011;5526;42.070;24.752;2023-07-31T00:43:48;2.22;;;2.13;;
10947;SDS011;5526;42.070;24.752;2023-07-31T00:46:15;2.50;;;2.33;;
10947;SDS011;5526;42.070;24.752;2023-07-31T00:48:43;2.38;;;2.17;;
10947;SDS011;5526;42.070;24.752;2023-07-31T00:51:10;3.60;;;2.45;;
10947;SDS011;5526;42.070;24.752;2023-07-31T00:53:37;2.55;;;2.40;;
10947;SDS011;5526;42.070;24.752;2023-07-31T00:56:06;2.60;;;2.40;;
10947;SDS011;5526;42.070;24.752;2023-07-31T00:58:34;3.60;;;2.95;;
10947;SDS011;5526;42.070;24.752;2023-07-31T01:01:03;2.65;;;2.45;;
10947;SDS011;5526;42.070;24.752;2023-07-31T01:03:30;3.10;;;2.72;;
10947;SDS011;5526;42.070;24.752;2023-07-31T01:06:07;4.13;;;2.85;;
10947;SDS011;5526;42.070;24.752;2023-07-31T01:08:42;3.33;;;3.03;;
10947;SDS011;5526;42.070;24.752;2023-07-31T01:11:19;3.33;;;2.70;;
10947;SDS011;5526;42.070;24.752;2023-07-31T01:13:52;3.75;;;3.10;;
10947;SDS011;5526;42.070;24.752;2023-07-31T01:16:21;3.85;;;3.17;;
10947;SDS011;5526;42.070;24.752;2023-07-31T01:18:49;3.83;;;3.20;;
10947;SDS011;5526;42.070;24.752;2023-07-31T01:21:21;4.18;;;3.15;;
10947;SDS011;5526;42.070;24.752;2023-07-31T01:24:13;3.65;;;3.28;;
10947;SDS011;5526;42.070;24.752;2023-07-31T01:26:52;2.78;;;2.60;;
10947;SDS011;5526;42.070;24.752;2023-07-31T01:29:24;3.30;;;3.03;;
10947;SDS011;5526;42.070;24.752;2023-07-31T01:31:59;3.15;;;2.65;;
10947;SDS011;5526;42.070;24.752;2023-07-31T01:34:29;3.47;;;2.92;;
10947;SDS011;5526;42.070;24.752;2023-07-31T01:36:57;2.58;;;2.35;;
10947;SDS011;5526;42.070;24.752;2023-07-31T01:39:24;2.85;;;2.55;;
10947;SDS011;5526;42.070;24.752;2023-07-31T01:41:53;2.72;;;2.40;;
10947;SDS011;5526;42.070;24.752;2023-07-31T01:44:20;3.03;;;2.22;;
10947;SDS011;5526;42.070;24.752;2023-07-31T01:46:47;2.38;;;2.22;;
10947;SDS011;5526;42.070;24.752;2023-07-31T01:49:14;2.47;;;2.28;;
10947;SDS011;5526;42.070;24.752;2023-07-31T01:51:41;2.63;;;2.42;;
10947;SDS011;5526;42.070;24.752;2023-07-31T01:54:08;3.10;;;2.38;;
10947;SDS011;5526;42.070;24.752;2023-07-31T01:56:35;2.88;;;2.67;;
10947;SDS011;5526;42.070;24.752;2023-07-31T01:59:03;2.92;;;2.70;;
10947;SDS011;5526;42.070;24.752;2023-07-31T02:01:30;3.03;;;2.65;;
10947;SDS011;5526;42.070;24.752;2023-07-31T02:03:57;2.17;;;1.98;;
10947;SDS011;5526;42.070;24.752;2023-07-31T02:06:24;4.50;;;2.08;;
10947;SDS011;5526;42.070;24.752;2023-07-31T02:08:51;1.90;;;1.80;;
10947;SDS011;5526;42.070;24.752;2023-07-31T02:11:18;2.20;;;2.10;;
10947;SDS011;5526;42.070;24.752;2023-07-31T02:13:45;2.17;;;2.00;;
10947;SDS011;5526;42.070;24.752;2023-07-31T02:16:13;2.20;;;2.00;;
10947;SDS011;5526;42.070;24.752;2023-07-31T02:18:40;1.90;;;1.80;;
10947;SDS011;5526;42.070;24.752;2023-07-31T02:21:07;2.75;;;2.15;;
10947;SDS011;5526;42.070;24.752;2023-07-31T02:23:34;5.32;;;2.28;;
10947;SDS011;5526;42.070;24.752;2023-07-31T02:26:01;2.83;;;2.05;;
10947;SDS011;5526;42.070;24.752;2023-07-31T02:28:28;2.17;;;2.08;;
10947;SDS011;5526;42.070;24.752;2023-07-31T02:30:55;2.53;;;2.33;;
10947;SDS011;5526;42.070;24.752;2023-07-31T02:33:23;2.72;;;2.53;;
10947;SDS011;5526;42.070;24.752;2023-07-31T02:35:50;3.45;;;3.25;;
10947;SDS011;5526;42.070;24.752;2023-07-31T02:38:17;3.42;;;3.22;;
10947;SDS011;5526;42.070;24.752;2023-07-31T02:40:44;3.80;;;3.50;;
10947;SDS011;5526;42.070;24.752;2023-07-31T02:43:11;3.75;;;3.40;;
10947;SDS011;5526;42.070;24.752;2023-07-31T02:45:38;4.47;;;3.53;;
10947;SDS011;5526;42.070;24.752;2023-07-31T02:48:05;3.92;;;3.60;;
10947;SDS011;5526;42.070;24.752;2023-07-31T02:50:33;3.97;;;3.70;;
10947;SDS011;5526;42.070;24.752;2023-07-31T02:53:00;5.13;;;3.88;;
10947;SDS011;5526;42.070;24.752;2023-07-31T02:55:27;3.83;;;3.63;;
10947;SDS011;5526;42.070;24.752;2023-07-31T02:57:54;4.70;;;3.65;;
10947;SDS011;5526;42.070;24.752;2023-07-31T03:00:21;4.05;;;3.65;;
10947;SDS011;5526;42.070;24.752;2023-07-31T03:02:48;3.63;;;3.42;;
10947;SDS011;5526;42.070;24.752;2023-07-31T03:05:15;3.75;;;3.45;;
10947;SDS011;5526;42.070;24.752;2023-07-31T03:07:43;3.65;;;3.35;;
10947;SDS011;5526;42.070;24.752;2023-07-31T03:10:10;4.20;;;3.80;;
10947;SDS011;5526;42.070;24.752;2023-07-31T03:12:37;4.18;;;3.80;;
10947;SDS011;5526;42.070;24.752;2023-07-31T03:15:04;4.25;;;3.95;;
10947;SDS011;5526;42.070;24.752;2023-07-31T03:17:32;3.95;;;3.75;;
10947;SDS011;5526;42.070;24.752;2023-07-31T03:19:59;4.60;;;4.30;;
10947;SDS011;5526;42.070;24.752;2023-07-31T03:22:26;5.55;;;5.05;;
10947;SDS011;5526;42.070;24.752;2023-07-31T03:24:54;5.20;;;4.80;;
10947;SDS011;5526;42.070;24.752;2023-07-31T03:27:21;5.22;;;4.93;;
10947;SDS011;5526;42.070;24.752;2023-07-31T03:29:48;5.57;;;5.20;;
10947;SDS011;5526;42.070;24.752;2023-07-31T03:32:16;5.50;;;5.10;;
10947;SDS011;5526;42.070;24.752;2023-07-31T03:34:43;5.55;;;5.13;;
10947;SDS011;5526;42.070;24.752;2023-07-31T03:37:10;5.47;;;5.18;;
10947;SDS011;5526;42.070;24.752;2023-07-31T03:39:37;5.05;;;4.75;;
10947;SDS011;5526;42.070;24.752;2023-07-31T03:42:06;6.63;;;4.90;;
10947;SDS011;5526;42.070;24.752;2023-07-31T03:44:33;4.97;;;4.68;;
10947;SDS011;5526;42.070;24.752;2023-07-31T03:47:00;5.00;;;4.70;;
10947;SDS011;5526;42.070;24.752;2023-07-31T03:49:26;5.78;;;5.20;;
10947;SDS011;5526;42.070;24.752;2023-07-31T03:51:53;6.05;;;5.10;;
10947;SDS011;5526;42.070;24.752;2023-07-31T03:54:20;7.13;;;5.05;;
10947;SDS011;5526;42.070;24.752;2023-07-31T03:56:47;5.68;;;5.18;;
10947;SDS011;5526;42.070;24.752;2023-07-31T03:59:16;5.60;;;5.20;;
10947;SDS011;5526;42.070;24.752;2023-07-31T04:01:43;6.20;;;5.75;;
10947;SDS011;5526;42.070;24.752;2023-07-31T04:04:10;5.90;;;5.40;;
10947;SDS011;5526;42.070;24.752;2023-07-31T04:06:37;5.53;;;5.13;;
10947;SDS011;5526;42.070;24.752;2023-07-31T04:09:04;5.40;;;4.93;;
10947;SDS011;5526;42.070;24.752;2023-07-31T04:11:31;5.28;;;4.88;;
10947;SDS011;5526;42.070;24.752;2023-07-31T04:13:58;5.20;;;4.80;;
10947;SDS011;5526;42.070;24.752;2023-07-31T04:16:26;5.40;;;5.00;;
10947;SDS011;5526;42.070;24.752;2023-07-31T04:18:53;5.15;;;4.80;;
10947;SDS011;5526;42.070;24.752;2023-07-31T04:21:20;4.93;;;4.50;;
10947;SDS011;5526;42.070;24.752;2023-07-31T04:23:47;4.78;;;4.38;;
10947;SDS011;5526;42.070;24.752;2023-07-31T04:26:13;4.72;;;4.32;;
10947;SDS011;5526;42.070;24.752;2023-07-31T04:28:40;4.50;;;4.20;;
10947;SDS011;5526;42.070;24.752;2023-07-31T04:31:07;4.75;;;4.40;;
10947;SDS011;5526;42.070;24.752;2023-07-31T04:33:36;5.00;;;4.60;;
10947;SDS011;5526;42.070;24.752;2023-07-31T04:36:04;4.65;;;4.35;;
10947;SDS011;5526;42.070;24.752;2023-07-31T04:38:31;4.97;;;4.57;;
10947;SDS011;5526;42.070;24.752;2023-07-31T04:40:58;5.18;;;4.78;;
10947;SDS011;5526;42.070;24.752;2023-07-31T04:43:25;5.22;;;4.93;;
10947;SDS011;5526;42.070;24.752;2023-07-31T04:45:51;5.70;;;5.35;;
10947;SDS011;5526;42.070;24.752;2023-07-31T04:48:19;4.75;;;4.45;;
10947;SDS011;5526;42.070;24.752;2023-07-31T04:50:47;5.50;;;5.10;;
10947;SDS011;5526;42.070;24.752;2023-07-31T04:53:14;5.00;;;4.70;;
10947;SDS011;5526;42.070;24.752;2023-07-31T04:55:41;4.65;;;4.35;;
10947;SDS011;5526;42.070;24.752;2023-07-31T04:58:08;4.95;;;4.65;;
10947;SDS011;5526;42.070;24.752;2023-07-31T05:00:35;4.85;;;4.55;;
10947;SDS011;5526;42.070;24.752;2023-07-31T05:03:02;4.88;;;4.57;;
10947;SDS011;5526;42.070;24.752;2023-07-31T05:05:30;4.65;;;4.38;;
10947;SDS011;5526;42.070;24.752;2023-07-31T05:07:58;4.75;;;4.45;;
10947;SDS011;5526;42.070;24.752;2023-07-31T05:10:25;4.47;;;4.18;;
10947;SDS011;5526;42.070;24.752;2023-07-31T05:12:52;4.30;;;4.00;;
10947;SDS011;5526;42.070;24.752;2023-07-31T05:15:19;4.68;;;4.38;;
10947;SDS011;5526;42.070;24.752;2023-07-31T05:17:46;4.78;;;4.38;;
10947;SDS011;5526;42.070;24.752;2023-07-31T05:20:13;5.30;;;4.90;;
10947;SDS011;5526;42.070;24.752;2023-07-31T05:22:41;5.05;;;4.65;;
10947;SDS011;5526;42.070;24.752;2023-07-31T05:25:09;5.90;;;5.40;;
10947;SDS011;5526;42.070;24.752;2023-07-31T05:27:36;5.80;;;5.13;;
10947;SDS011;5526;42.070;24.752;2023-07-31T05:30:04;4.50;;;4.20;;
10947;SDS011;5526;42.070;24.752;2023-07-31T05:32:31;4.88;;;4.57;;
10947;SDS011;5526;42.070;24.752;2023-07-31T05:34:58;4.93;;;4.53;;
10947;SDS011;5526;42.070;24.752;2023-07-31T05:37:26;5.03;;;4.63;;
10947;SDS011;5526;42.070;24.752;2023-07-31T05:39:53;5.05;;;4.75;;
10947;SDS011;5526;42.070;24.752;2023-07-31T05:42:21;5.00;;;4.68;;
10947;SDS011;5526;42.070;24.752;2023-07-31T05:44:48;5.20;;;4.72;;
10947;SDS011;5526;42.070;24.752;2023-07-31T05:47:15;5.03;;;4.63;;
10947;SDS011;5526;42.070;24.752;2023-07-31T05:49:42;6.00;;;5.47;;
10947;SDS011;5526;42.070;24.752;2023-07-31T05:52:09;6.90;;;6.38;;
10947;SDS011;5526;42.070;24.752;2023-07-31T05:54:36;7.15;;;6.75;;
10947;SDS011;5526;42.070;24.752;2023-07-31T05:57:03;8.77;;;8.05;;
10947;SDS011;5526;42.070;24.752;2023-07-31T05:59:32;8.35;;;7.82;;
10947;SDS011;5526;42.070;24.752;2023-07-31T06:01:59;8.68;;;7.93;;
10947;SDS011;5526;42.070;24.752;2023-07-31T06:04:26;8.05;;;7.35;;
10947;SDS011;5526;42.070;24.752;2023-07-31T06:06:53;7.50;;;7.00;;
10947;SDS011;5526;42.070;24.752;2023-07-31T06:09:20;7.72;;;7.22;;
10947;SDS011;5526;42.070;24.752;2023-07-31T06:11:47;8.13;;;7.38;;
10947;SDS011;5526;42.070;24.752;2023-07-31T07:16:31;11.98;;;11.20;;
10947;SDS011;5526;42.070;24.752;2023-07-31T07:18:58;11.90;;;11.15;;
10947;SDS011;5526;42.070;24.752;2023-07-31T07:21:25;12.23;;;11.40;;
10947;SDS011;5526;42.070;24.752;2023-07-31T07:23:53;12.27;;;11.43;;
10947;SDS011;5526;42.070;24.752;2023-07-31T07:26:20;12.63;;;11.73;;
10947;SDS011;5526;42.070;24.752;2023-07-31T07:28:47;13.18;;;12.18;;
10947;SDS011;5526;42.070;24.752;2023-07-31T07:31:14;13.07;;;12.27;;
10947;SDS011;5526;42.070;24.752;2023-07-31T07:33:43;14.10;;;13.00;;
10947;SDS011;5526;42.070;24.752;2023-07-31T07:36:10;13.05;;;12.15;;
10947;SDS011;5526;42.070;24.752;2023-07-31T07:38:38;15.07;;;14.02;;
10947;SDS011;5526;42.070;24.752;2023-07-31T07:41:08;15.35;;;14.25;;
10947;SDS011;5526;42.070;24.752;2023-07-31T07:43:36;13.90;;;12.90;;
10947;SDS011;5526;42.070;24.752;2023-07-31T07:46:03;14.82;;;13.73;;
10947;SDS011;5526;42.070;24.752;2023-07-31T07:48:30;15.27;;;14.27;;
10947;SDS011;5526;42.070;24.752;2023-07-31T07:50:59;15.10;;;14.00;;
10947;SDS011;5526;42.070;24.752;2023-07-31T07:53:26;15.70;;;14.50;;
10947;SDS011;5526;42.070;24.752;2023-07-31T07:55:53;17.45;;;16.15;;
10947;SDS011;5526;42.070;24.752;2023-07-31T07:58:20;16.35;;;15.05;;
10947;SDS011;5526;42.070;24.752;2023-07-31T08:00:50;17.23;;;15.73;;
10947;SDS011;5526;42.070;24.752;2023-07-31T08:03:18;17.10;;;15.80;;
10947;SDS011;5526;42.070;24.752;2023-07-31T08:05:45;17.35;;;16.15;;
10947;SDS011;5526;42.070;24.752;2023-07-31T08:08:15;17.95;;;16.63;;
10947;SDS011;5526;42.070;24.752;2023-07-31T08:10:42;18.55;;;17.08;;
10947;SDS011;5526;42.070;24.752;2023-07-31T08:13:09;19.13;;;17.63;;
10947;SDS011;5526;42.070;24.752;2023-07-31T08:15:37;19.08;;;17.67;;
10947;SDS011;5526;42.070;24.752;2023-07-31T08:18:04;20.48;;;18.77;;
10947;SDS011;5526;42.070;24.752;2023-07-31T08:20:31;20.50;;;18.80;;
10947;SDS011;5526;42.070;24.752;2023-07-31T08:22:58;20.55;;;18.95;;
10947;SDS011;5526;42.070;24.752;2023-07-31T08:25:27;21.27;;;19.48;;
10947;SDS011;5526;42.070;24.752;2023-07-31T08:27:54;19.00;;;17.35;;
10947;SDS011;5526;42.070;24.752;2023-07-31T08:30:22;18.63;;;17.23;;
10947;SDS011;5526;42.070;24.752;2023-07-31T08:32:49;16.42;;;15.23;;
10947;SDS011;5526;42.070;24.752;2023-07-31T08:35:16;16.08;;;14.88;;
10947;SDS011;5526;42.070;24.752;2023-07-31T08:37:43;17.75;;;16.35;;
10947;SDS011;5526;42.070;24.752;2023-07-31T08:40:10;17.60;;;16.17;;
10947;SDS011;5526;42.070;24.752;2023-07-31T08:42:44;17.95;;;16.65;;
10947;SDS011;5526;42.070;24.752;2023-07-31T08:45:13;17.77;;;16.38;;
10947;SDS011;5526;42.070;24.752;2023-07-31T08:47:42;18.15;;;16.95;;
10947;SDS011;5526;42.070;24.752;2023-07-31T08:50:12;18.33;;;16.98;;
10947;SDS011;5526;42.070;24.752;2023-07-31T08:52:39;18.90;;;17.60;;
10947;SDS011;5526;42.070;24.752;2023-07-31T08:55:07;19.20;;;17.80;;
10947;SDS011;5526;42.070;24.752;2023-07-31T08:57:35;18.98;;;17.58;;
10947;SDS011;5526;42.070;24.752;2023-07-31T09:00:05;18.38;;;16.83;;
10947;SDS011;5526;42.070;24.752;2023-07-31T09:02:35;18.75;;;17.35;;
10947;SDS011;5526;42.070;24.752;2023-07-31T09:05:05;18.13;;;16.83;;
10947;SDS011;5526;42.070;24.752;2023-07-31T09:07:33;17.25;;;15.98;;
10947;SDS011;5526;42.070;24.752;2023-07-31T09:10:01;17.58;;;16.33;;
10947;SDS011;5526;42.070;24.752;2023-07-31T09:12:28;17.05;;;15.80;;
10947;SDS011;5526;42.070;24.752;2023-07-31T09:14:55;17.00;;;15.80;;
10947;SDS011;5526;42.070;24.752;2023-07-31T09:17:31;17.58;;;16.35;;
10947;SDS011;5526;42.070;24.752;2023-07-31T09:20:03;18.45;;;17.15;;
10947;SDS011;5526;42.070;24.752;2023-07-31T09:22:40;17.92;;;16.60;;
10947;SDS011;5526;42.070;24.752;2023-07-31T09:25:14;18.88;;;17.48;;
10947;SDS011;5526;42.070;24.752;2023-07-31T09:27:48;19.95;;;18.55;;
10947;SDS011;5526;42.070;24.752;2023-07-31T09:30:16;18.95;;;17.65;;
10947;SDS011;5526;42.070;24.752;2023-07-31T09:32:46;20.95;;;19.25;;
10947;SDS011;5526;42.070;24.752;2023-07-31T09:35:18;19.33;;;17.95;;
10947;SDS011;5526;42.070;24.752;2023-07-31T09:37:50;19.50;;;18.10;;
10947;SDS011;5526;42.070;24.752;2023-07-31T09:43:04;19.80;;;18.23;;
10947;SDS011;5526;42.070;24.752;2023-07-31T09:45:33;18.98;;;17.58;;
10947;SDS011;5526;42.070;24.752;2023-07-31T09:48:04;17.70;;;16.48;;
10947;SDS011;5526;42.070;24.752;2023-07-31T09:50:34;18.15;;;16.85;;
10947;SDS011;5526;42.070;24.752;2023-07-31T09:53:03;19.17;;;17.75;;
10947;SDS011;5526;42.070;24.752;2023-07-31T09:55:30;18.27;;;16.92;;
10947;SDS011;5526;42.070;24.752;2023-07-31T09:57:58;18.88;;;17.42;;
10947;SDS011;5526;42.070;24.752;2023-07-31T10:00:25;17.73;;;16.52;;
10947;SDS011;5526;42.070;24.752;2023-07-31T10:02:53;18.20;;;16.92;;
10947;SDS011;5526;42.070;24.752;2023-07-31T10:05:26;16.10;;;15.05;;
10947;SDS011;5526;42.070;24.752;2023-07-31T10:07:57;15.07;;;14.02;;
10947;SDS011;5526;42.070;24.752;2023-07-31T10:10:24;11.77;;;10.98;;
10947;SDS011;5526;42.070;24.752;2023-07-31T10:12:53;12.00;;;11.20;;
10947;SDS011;5526;42.070;24.752;2023-07-31T10:15:20;10.52;;;9.90;;
10947;SDS011;5526;42.070;24.752;2023-07-31T10:17:47;11.90;;;11.10;;
10947;SDS011;5526;42.070;24.752;2023-07-31T10:20:16;12.45;;;11.65;;
10947;SDS011;5526;42.070;24.752;2023-07-31T10:22:45;12.13;;;11.23;;
10947;SDS011;5526;42.070;24.752;2023-07-31T10:25:12;10.73;;;10.02;;
10947;SDS011;5526;42.070;24.752;2023-07-31T10:27:41;11.57;;;10.88;;
10947;SDS011;5526;42.070;24.752;2023-07-31T10:30:09;10.90;;;10.20;;
10947;SDS011;5526;42.070;24.752;2023-07-31T10:32:41;10.55;;;9.82;;
10947;SDS011;5526;42.070;24.752;2023-07-31T10:35:09;10.23;;;9.52;;
10947;SDS011;5526;42.070;24.752;2023-07-31T10:37:38;10.82;;;10.13;;
10947;SDS011;5526;42.070;24.752;2023-07-31T10:40:11;10.10;;;9.43;;
10947;SDS011;5526;42.070;24.752;2023-07-31T10:42:45;9.63;;;9.02;;
10947;SDS011;5526;42.070;24.752;2023-07-31T10:45:14;9.90;;;9.15;;
10947;SDS011;5526;42.070;24.752;2023-07-31T10:47:58;9.70;;;9.10;;
10947;SDS011;5526;42.070;24.752;2023-07-31T10:50:26;8.63;;;8.13;;
10947;SDS011;5526;42.070;24.752;2023-07-31T10:52:54;8.80;;;8.20;;
10947;SDS011;5526;42.070;24.752;2023-07-31T10:55:26;8.90;;;8.27;;
10947;SDS011;5526;42.070;24.752;2023-07-31T10:57:55;8.50;;;8.00;;
10947;SDS011;5526;42.070;24.752;2023-07-31T11:00:24;8.90;;;8.35;;
10947;SDS011;5526;42.070;24.752;2023-07-31T11:02:56;9.70;;;8.90;;
10947;SDS011;5526;42.070;24.752;2023-07-31T11:05:46;9.05;;;8.45;;
10947;SDS011;5526;42.070;24.752;2023-07-31T11:08:19;8.40;;;7.82;;
10947;SDS011;5526;42.070;24.752;2023-07-31T11:10:49;8.77;;;7.90;;
10947;SDS011;5526;42.070;24.752;2023-07-31T11:13:31;7.45;;;6.95;;
10947;SDS011;5526;42.070;24.752;2023-07-31T11:15:59;8.25;;;7.75;;
10947;SDS011;5526;42.070;24.752;2023-07-31T11:18:26;7.97;;;7.45;;
10947;SDS011;5526;42.070;24.752;2023-07-31T11:20:54;15.65;;;8.90;;
10947;SDS011;5526;42.070;24.752;2023-07-31T11:23:21;8.43;;;7.93;;
10947;SDS011;5526;42.070;24.752;2023-07-31T11:25:50;8.60;;;8.00;;
10947;SDS011;5526;42.070;24.752;2023-07-31T11:28:18;8.57;;;8.07;;
10947;SDS011;5526;42.070;24.752;2023-07-31T11:30:46;12.82;;;8.32;;
10947;SDS011;5526;42.070;24.752;2023-07-31T11:33:13;9.13;;;8.23;;
10947;SDS011;5526;42.070;24.752;2023-07-31T11:35:41;8.23;;;7.68;;
10947;SDS011;5526;42.070;24.752;2023-07-31T11:38:11;8.57;;;7.88;;
10947;SDS011;5526;42.070;24.752;2023-07-31T11:40:41;10.30;;;9.30;;
10947;SDS011;5526;42.070;24.752;2023-07-31T11:43:10;11.38;;;10.43;;
10947;SDS011;5526;42.070;24.752;2023-07-31T11:45:41;31.35;;;11.57;;
10947;SDS011;5526;42.070;24.752;2023-07-31T11:48:17;10.77;;;9.88;;
10947;SDS011;5526;42.070;24.752;2023-07-31T11:50:45;10.85;;;9.70;;
10947;SDS011;5526;42.070;24.752;2023-07-31T11:53:14;10.65;;;9.80;;
10947;SDS011;5526;42.070;24.752;2023-07-31T11:55:43;9.90;;;9.20;;
10947;SDS011;5526;42.070;24.752;2023-07-31T11:58:13;10.40;;;9.70;;
10947;SDS011;5526;42.070;24.752;2023-07-31T12:00:42;9.90;;;9.25;;
10947;SDS011;5526;42.070;24.752;2023-07-31T12:03:09;9.70;;;8.90;;
10947;SDS011;5526;42.070;24.752;2023-07-31T12:05:36;9.35;;;8.65;;
10947;SDS011;5526;42.070;24.752;2023-07-31T12:08:08;9.75;;;8.95;;
10947;SDS011;5526;42.070;24.752;2023-07-31T12:10:36;26.65;;;11.45;;
10947;SDS011;5526;42.070;24.752;2023-07-31T12:13:03;10.65;;;9.85;;
10947;SDS011;5526;42.070;24.752;2023-07-31T12:15:37;10.50;;;9.60;;
10947;SDS011;5526;42.070;24.752;2023-07-31T12:18:05;10.23;;;9.48;;
10947;SDS011;5526;42.070;24.752;2023-07-31T12:20:34;10.73;;;10.02;;
10947;SDS011;5526;42.070;24.752;2023-07-31T12:23:02;10.68;;;9.98;;
10947;SDS011;5526;42.070;24.752;2023-07-31T12:25:30;11.63;;;10.70;;
10947;SDS011;5526;42.070;24.752;2023-07-31T12:28:03;10.02;;;9.32;;
10947;SDS011;5526;42.070;24.752;2023-07-31T12:30:32;11.30;;;10.40;;
10947;SDS011;5526;42.070;24.752;2023-07-31T12:33:05;10.55;;;9.85;;
10947;SDS011;5526;42.070;24.752;2023-07-31T12:35:36;11.15;;;10.48;;
10947;SDS011;5526;42.070;24.752;2023-07-31T12:38:04;19.27;;;11.98;;
10947;SDS011;5526;42.070;24.752;2023-07-31T12:40:31;11.95;;;11.05;;
10947;SDS011;5526;42.070;24.752;2023-07-31T12:43:01;12.07;;;11.18;;
10947;SDS011;5526;42.070;24.752;2023-07-31T12:45:29;11.90;;;11.10;;
10947;SDS011;5526;42.070;24.752;2023-07-31T12:47:57;25.65;;;12.20;;
10947;SDS011;5526;42.070;24.752;2023-07-31T12:50:26;23.33;;;10.93;;
10947;SDS011;5526;42.070;24.752;2023-07-31T12:52:53;11.13;;;10.32;;
10947;SDS011;5526;42.070;24.752;2023-07-31T12:55:21;10.82;;;10.15;;
10947;SDS011;5526;42.070;24.752;2023-07-31T12:57:48;11.02;;;10.23;;
10947;SDS011;5526;42.070;24.752;2023-07-31T13:00:15;11.20;;;10.30;;
10947;SDS011;5526;42.070;24.752;2023-07-31T13:02:43;8.77;;;8.27;;
10947;SDS011;5526;42.070;24.752;2023-07-31T13:05:10;9.43;;;8.82;;
10947;SDS011;5526;42.070;24.752;2023-07-31T13:07:39;9.70;;;8.82;;
10947;SDS011;5526;42.070;24.752;2023-07-31T13:10:07;9.50;;;8.80;;
10947;SDS011;5526;42.070;24.752;2023-07-31T13:12:35;9.20;;;8.55;;
10947;SDS011;5526;42.070;24.752;2023-07-31T13:15:02;9.50;;;8.80;;
10947;SDS011;5526;42.070;24.752;2023-07-31T13:17:29;10.40;;;9.70;;
10947;SDS011;5526;42.070;24.752;2023-07-31T13:19:57;14.85;;;9.18;;
10947;SDS011;5526;42.070;24.752;2023-07-31T13:22:24;9.32;;;8.48;;
10947;SDS011;5526;42.070;24.752;2023-07-31T13:24:53;9.10;;;8.43;;
10947;SDS011;5526;42.070;24.752;2023-07-31T13:27:20;9.15;;;8.52;;
10947;SDS011;5526;42.070;24.752;2023-07-31T13:29:47;29.00;;;11.00;;
10947;SDS011;5526;42.070;24.752;2023-07-31T13:32:15;9.38;;;8.57;;
10947;SDS011;5526;42.070;24.752;2023-07-31T13:34:43;10.02;;;9.10;;
10947;SDS011;5526;42.070;24.752;2023-07-31T13:37:10;9.40;;;8.80;;
10947;SDS011;5526;42.070;24.752;2023-07-31T13:39:38;9.10;;;8.38;;
10947;SDS011;5526;42.070;24.752;2023-07-31T13:42:07;10.05;;;9.25;;
10947;SDS011;5526;42.070;24.752;2023-07-31T13:44:37;9.85;;;8.95;;
10947;SDS011;5526;42.070;24.752;2023-07-31T13:47:04;9.27;;;8.43;;
10947;SDS011;5526;42.070;24.752;2023-07-31T13:49:31;8.77;;;8.18;;
10947;SDS011;5526;42.070;24.752;2023-07-31T13:51:59;9.25;;;8.60;;
10947;SDS011;5526;42.070;24.752;2023-07-31T13:54:26;8.95;;;8.25;;
10947;SDS011;5526;42.070;24.752;2023-07-31T13:56:53;9.57;;;8.88;;
10947;SDS011;5526;42.070;24.752;2023-07-31T13:59:22;9.55;;;8.95;;
10947;SDS011;5526;42.070;24.752;2023-07-31T14:01:49;9.30;;;8.60;;
10947;SDS011;5526;42.070;24.752;2023-07-31T14:04:17;8.82;;;8.27;;
10947;SDS011;5526;42.070;24.752;2023-07-31T14:06:44;8.85;;;8.25;;
10947;SDS011;5526;42.070;24.752;2023-07-31T14:09:15;9.15;;;8.40;;
10947;SDS011;5526;42.070;24.752;2023-07-31T14:11:43;8.57;;;8.07;;
10947;SDS011;5526;42.070;24.752;2023-07-31T14:14:11;9.10;;;8.50;;
10947;SDS011;5526;42.070;24.752;2023-07-31T14:16:40;8.75;;;8.15;;
10947;SDS011;5526;42.070;24.752;2023-07-31T14:19:07;8.10;;;7.60;;
10947;SDS011;5526;42.070;24.752;2023-07-31T14:21:34;8.50;;;7.90;;
10947;SDS011;5526;42.070;24.752;2023-07-31T14:24:02;9.15;;;8.45;;
10947;SDS011;5526;42.070;24.752;2023-07-31T14:26:29;8.13;;;7.53;;
10947;SDS011;5526;42.070;24.752;2023-07-31T14:28:56;7.82;;;7.32;;
10947;SDS011;5526;42.070;24.752;2023-07-31T14:31:23;7.45;;;6.85;;
10947;SDS011;5526;42.070;24.752;2023-07-31T14:33:52;7.72;;;7.13;;
10947;SDS011;5526;42.070;24.752;2023-07-31T14:36:19;7.55;;;7.10;;
10947;SDS011;5526;42.070;24.752;2023-07-31T14:38:46;8.05;;;7.60;;
10947;SDS011;5526;42.070;24.752;2023-07-31T14:41:13;8.98;;;8.35;;
10947;SDS011;5526;42.070;24.752;2023-07-31T14:43:40;8.32;;;7.82;;
10947;SDS011;5526;42.070;24.752;2023-07-31T14:46:07;8.40;;;7.75;;
10947;SDS011;5526;42.070;24.752;2023-07-31T14:48:34;8.45;;;7.85;;
10947;SDS011;5526;42.070;24.752;2023-07-31T14:51:02;8.70;;;8.10;;
10947;SDS011;5526;42.070;24.752;2023-07-31T14:53:29;8.77;;;8.10;;
10947;SDS011;5526;42.070;24.752;2023-07-31T14:55:56;8.30;;;7.80;;
10947;SDS011;5526;42.070;24.752;2023-07-31T14:58:23;9.20;;;8.50;;
10947;SDS011;5526;42.070;24.752;2023-07-31T15:00:50;8.68;;;8.07;;
10947;SDS011;5526;42.070;24.752;2023-07-31T15:03:17;8.32;;;7.78;;
10947;SDS011;5526;42.070;24.752;2023-07-31T15:05:44;8.40;;;7.80;;
10947;SDS011;5526;42.070;24.752;2023-07-31T15:08:13;8.63;;;7.93;;
10947;SDS011;5526;42.070;24.752;2023-07-31T15:10:40;7.75;;;7.25;;
10947;SDS011;5526;42.070;24.752;2023-07-31T15:13:07;7.65;;;7.05;;
10947;SDS011;5526;42.070;24.752;2023-07-31T15:15:34;7.43;;;6.90;;
10947;SDS011;5526;42.070;24.752;2023-07-31T15:18:01;8.20;;;7.60;;
10947;SDS011;5526;42.070;24.752;2023-07-31T15:20:28;8.70;;;8.10;;
10947;SDS011;5526;42.070;24.752;2023-07-31T15:22:55;8.48;;;7.95;;
10947;SDS011;5526;42.070;24.752;2023-07-31T15:25:24;8.75;;;8.13;;
10947;SDS011;5526;42.070;24.752;2023-07-31T15:27:51;8.20;;;7.57;;
10947;SDS011;5526;42.070;24.752;2023-07-31T15:30:18;8.63;;;7.93;;
10947;SDS011;5526;42.070;24.752;2023-07-31T15:32:45;8.73;;;8.07;;
10947;SDS011;5526;42.070;24.752;2023-07-31T15:35:13;8.68;;;8.07;;
10947;SDS011;5526;42.070;24.752;2023-07-31T15:37:41;8.82;;;8.23;;
10947;SDS011;5526;42.070;24.752;2023-07-31T15:40:08;8.70;;;8.10;;
10947;SDS011;5526;42.070;24.752;2023-07-31T15:42:37;8.18;;;7.57;;
10947;SDS011;5526;42.070;24.752;2023-07-31T15:45:05;8.55;;;7.95;;
10947;SDS011;5526;42.070;24.752;2023-07-31T15:47:33;7.97;;;7.53;;
10947;SDS011;5526;42.070;24.752;2023-07-31T15:50:00;8.60;;;7.80;;
10947;SDS011;5526;42.070;24.752;2023-07-31T15:52:27;8.05;;;7.55;;